Time;durP1;ratioP1;P1;durP2;ratioP2;P2;SDS_P1;SDS_P2;PMS_P1;PMS_P2;Temp;Humidity;BMP_temperature;BMP_pressure;BME280_temperature;BME280_humidity;BME280_pressure;Samples;Min_cycle;Max_cycle;Signal;HPM_P1;HPM_P2
2022/05/03 00:00:53;;;;;;;;;38.50;31.50;;;;;13.60;51.64;101161.69;5057007;28;45461;-59
2022/05/03 00:03:24;;;;;;;;;37.00;33.75;;;;;13.65;51.18;101164.09;5057541;27;45648;-56
2022/05/03 00:05:55;;;;;;;;;43.75;36.75;;;;;13.59;51.72;101162.66;5055601;27;45543;-57
2022/05/03 00:08:39;;;;;;;;;41.50;32.50;;;;;13.54;51.76;101162.06;5056913;28;45477;-59
2022/05/03 00:11:31;;;;;;;;;44.00;35.50;;;;;13.53;51.76;101160.34;5056506;28;45297;-61
2022/05/03 00:14:05;;;;;;;;;48.00;39.00;;;;;13.48;51.50;101152.59;5057517;27;45473;-62
2022/05/03 00:16:34;;;;;;;;;44.50;34.50;;;;;13.50;52.23;101157.84;5055677;27;45251;-59
2022/05/03 00:19:01;;;;;;;;;36.25;33.25;;;;;13.44;51.87;101151.06;5056106;28;45394;-57
2022/05/03 00:21:27;;;;;;;;;39.75;35.50;;;;;13.44;51.42;101151.06;5072375;27;45358;-55
2022/05/03 00:23:52;;;;;;;;;42.00;35.75;;;;;13.37;52.32;101148.84;5056798;27;45434;-54
2022/05/03 00:26:18;;;;;;;;;42.75;38.25;;;;;13.31;52.12;101143.88;5056691;27;45379;-57
2022/05/03 00:28:45;;;;;;;;;45.50;38.00;;;;;13.29;52.45;101133.28;5056940;28;45333;-55
2022/05/03 00:31:10;;;;;;;;;38.50;33.75;;;;;13.34;52.34;101139.19;5056618;28;45226;-56
2022/05/03 00:33:37;;;;;;;;;38.50;32.50;;;;;13.36;52.11;101145.31;5056598;28;45363;-54
2022/05/03 00:36:03;;;;;;;;;42.25;33.50;;;;;13.34;52.06;101139.19;5056340;28;46159;-54
2022/05/03 00:38:34;;;;;;;;;40.25;38.00;;;;;13.28;52.16;101137.75;5056799;27;45242;-62
2022/05/03 00:41:04;;;;;;;;;55.00;39.00;;;;;13.25;51.76;101134.38;5056771;28;45428;-60
2022/05/03 00:44:03;;;;;;;;;35.75;28.25;;;;;13.27;52.29;101138.69;5056663;28;45545;-62
2022/05/03 00:46:34;;;;;;;;;40.75;34.50;;;;;13.21;52.58;101132.84;5048491;28;46301;-59
2022/05/03 00:49:15;;;;;;;;;38.25;32.50;;;;;13.16;52.71;101134.91;5071766;28;45403;-53
2022/05/03 00:51:52;;;;;;;;;36.00;33.25;;;;;13.14;52.58;101137.63;5056264;28;45211;-53
2022/05/03 00:54:17;;;;;;;;;45.75;36.75;;;;;13.07;53.24;101132.75;5056905;28;45378;-56
2022/05/03 00:56:58;;;;;;;;;34.75;29.25;;;;;12.99;52.73;101136.72;5071726;28;47588;-57
2022/05/03 00:59:45;;;;;;;;;38.00;35.25;;;;;12.92;53.23;101135.38;5071602;28;45443;-54
2022/05/03 01:02:13;;;;;;;;;34.50;34.50;;;;;12.92;52.98;101138.03;5054836;27;45315;-58
2022/05/03 01:05:01;;;;;;;;;40.00;33.50;;;;;12.93;52.87;101138.91;5056585;28;45295;-60
2022/05/03 01:07:35;;;;;;;;;38.75;36.00;;;;;12.89;52.97;101132.88;5055681;28;45400;-56
2022/05/03 01:10:25;;;;;;;;;35.25;35.00;;;;;12.94;52.94;101149.47;5056019;28;45481;-54
2022/05/03 01:12:57;;;;;;;;;39.50;36.00;;;;;12.83;53.35;101149.22;5056096;28;45228;-61
2022/05/03 01:15:28;;;;;;;;;37.50;34.00;;;;;12.75;53.55;101124.75;5055116;28;45501;-62
2022/05/03 01:18:15;;;;;;;;;41.00;34.00;;;;;12.75;53.49;101140.78;5055796;27;47351;-61
2022/05/03 01:20:58;;;;;;;;;47.00;37.00;;;;;12.66;53.70;101131.50;5055966;28;45565;-63
2022/05/03 01:23:45;;;;;;;;;36.50;35.75;;;;;12.66;53.38;101133.31;5056046;28;45341;-59
2022/05/03 01:26:47;;;;;;;;;36.50;33.00;;;;;12.62;53.88;101142.41;5055867;28;45559;-55
2022/05/03 01:29:24;;;;;;;;;36.00;30.50;;;;;12.53;54.21;101134.94;5060293;28;46489;-55
2022/05/03 01:31:54;;;;;;;;;34.00;31.25;;;;;12.48;54.28;101137.84;5062073;27;45330;-62
2022/05/03 01:34:23;;;;;;;;;33.00;32.75;;;;;12.41;54.63;101123.13;5061702;28;45405;-59
2022/05/03 01:37:00;;;;;;;;;37.50;35.00;;;;;12.34;54.90;101122.59;5062709;28;45232;-62
2022/05/03 01:39:41;;;;;;;;;35.75;31.75;;;;;12.36;54.46;101123.38;5062150;27;45997;-63
2022/05/03 01:42:21;;;;;;;;;40.25;35.00;;;;;12.35;54.73;101121.66;5062124;27;45537;-63
2022/05/03 01:45:10;;;;;;;;;33.25;28.50;;;;;12.30;54.95;101129.06;5060940;28;45393;-64
2022/05/03 01:47:48;;;;;;;;;33.75;29.50;;;;;12.30;54.78;101118.38;5062726;28;45440;-64
2022/05/03 01:50:22;;;;;;;;;34.75;34.00;;;;;12.21;54.80;101124.22;5062193;28;45755;-57
2022/05/03 01:53:25;;;;;;;;;41.50;31.00;;;;;12.21;54.46;101116.22;5062334;28;45520;-58
2022/05/03 01:56:16;;;;;;;;;36.00;28.75;;;;;12.21;54.74;101118.88;5062400;28;45388;-54
2022/05/03 01:58:52;;;;;;;;;43.00;36.50;;;;;12.18;54.97;101120.88;5060982;27;45623;-53
2022/05/03 02:01:29;;;;;;;;;33.75;30.00;;;;;12.16;55.44;101123.63;5077433;27;47566;-51
2022/05/03 02:04:33;;;;;;;;;31.25;27.75;;;;;12.09;55.00;101104.41;5062125;28;45487;-58
2022/05/03 02:07:09;;;;;;;;;32.50;28.25;;;;;12.14;54.76;101112.19;5060672;27;45538;-59
2022/05/03 02:09:53;;;;;;;;;31.00;29.75;;;;;12.09;55.11;101104.41;5077623;27;45483;-55
2022/05/03 02:12:21;;;;;;;;;34.25;29.25;;;;;12.04;55.21;101109.16;5061794;28;45362;-55
2022/05/03 02:14:55;;;;;;;;;39.50;35.25;;;;;12.05;54.98;101112.66;5077474;27;45467;-58
2022/05/03 02:17:36;;;;;;;;;43.75;36.50;;;;;12.02;55.74;101115.50;5062019;28;45266;-61
2022/05/03 02:20:29;;;;;;;;;32.75;32.50;;;;;11.98;55.47;101116.59;5062418;28;45457;-59
2022/05/03 02:23:17;;;;;;;;;36.25;34.50;;;;;11.93;55.78;101121.31;5061521;28;45576;-59
2022/05/03 02:26:11;;;;;;;;;38.25;32.75;;;;;11.89;55.79;101119.78;5061732;28;45391;-60
2022/05/03 02:28:45;;;;;;;;;43.00;34.50;;;;;11.85;56.03;101126.19;5061769;28;45396;-56
2022/05/03 02:31:21;;;;;;;;;32.75;32.00;;;;;11.81;56.41;101121.03;5062147;28;45425;-54
2022/05/03 02:33:52;;;;;;;;;34.50;33.00;;;;;11.78;56.47;101125.63;5061950;27;45370;-58
2022/05/03 02:36:24;;;;;;;;;39.75;34.75;;;;;11.74;56.38;101127.59;5061802;28;45373;-59
2022/05/03 02:39:03;;;;;;;;;42.75;34.75;;;;;11.72;55.81;101120.63;5062150;27;45355;-60
2022/05/03 02:41:36;;;;;;;;;42.25;36.00;;;;;11.79;56.03;101122.91;5057621;28;45556;-57
2022/05/03 02:44:02;;;;;;;;;37.00;35.25;;;;;11.79;56.25;101128.25;5058464;28;45541;-56
2022/05/03 02:47:00;;;;;;;;;35.50;33.00;;;;;11.79;55.75;101125.56;5058260;28;45284;-60
2022/05/03 02:49:38;;;;;;;;;35.50;30.75;;;;;11.82;56.27;101127.22;5043639;28;45460;-60
2022/05/03 02:52:16;;;;;;;;;34.00;27.75;;;;;11.86;56.40;101130.59;5058476;28;45612;-61
2022/05/03 02:54:41;;;;;;;;;38.25;35.50;;;;;11.90;55.42;101124.16;5056577;27;46624;-61
2022/05/03 02:57:19;;;;;;;;;37.50;31.75;;;;;11.91;55.53;101131.19;5058098;28;45381;-56
2022/05/03 03:02:48;;;;;;;;;41.25;35.50;;;;;11.89;55.66;101117.97;5058232;28;45453;-57
2022/05/03 03:05:19;;;;;;;;;37.50;32.25;;;;;11.91;55.80;101126.72;5072848;28;46168;-54
2022/05/03 03:08:00;;;;;;;;;33.25;29.25;;;;;11.94;55.34;101125.69;5056641;28;45414;-58
2022/05/03 03:10:38;;;;;;;;;41.00;36.00;;;;;12.00;55.26;101120.06;5072620;28;45409;-54
2022/05/03 03:13:20;;;;;;;;;40.75;36.00;;;;;11.98;55.21;101132.59;5058391;28;45597;-60
2022/05/03 03:15:46;;;;;;;;;43.75;36.25;;;;;11.95;55.39;101117.63;5057889;28;45378;-55
2022/05/03 03:18:14;;;;;;;;;35.50;32.00;;;;;11.88;55.88;101112.72;5057392;28;45437;-60
2022/05/03 03:20:49;;;;;;;;;37.25;32.75;;;;;11.89;55.67;101125.09;5056854;28;45470;-61
2022/05/03 03:23:18;;;;;;;;;30.75;30.75;;;;;11.87;55.35;101127.00;5057852;28;45436;-60
2022/05/03 03:25:47;;;;;;;;;42.75;37.50;;;;;11.90;55.70;101121.50;5057470;28;46232;-59
2022/05/03 03:28:16;;;;;;;;;42.25;38.75;;;;;11.90;55.34;101117.03;5057656;27;45325;-55
2022/05/03 03:30:42;;;;;;;;;34.25;32.00;;;;;11.81;55.18;101101.50;5057660;28;45296;-56
2022/05/03 03:33:08;;;;;;;;;38.75;33.00;;;;;11.86;55.54;101118.13;5057721;27;45518;-56
2022/05/03 03:35:36;;;;;;;;;34.75;32.50;;;;;11.86;55.53;101112.81;5057723;28;46172;-61
2022/05/03 03:38:03;;;;;;;;;43.50;38.75;;;;;11.79;55.87;101109.59;5056814;28;45465;-55
2022/05/03 03:40:29;;;;;;;;;42.25;36.50;;;;;11.79;56.03;101117.59;5057463;28;45512;-63
2022/05/03 03:42:54;;;;;;;;;49.50;39.50;;;;;11.74;55.88;101102.75;5057543;28;45550;-64
2022/05/03 03:45:21;;;;;;;;;38.25;35.00;;;;;11.75;55.38;101105.34;5057402;28;46192;-57
2022/05/03 03:47:47;;;;;;;;;39.25;34.00;;;;;11.73;55.77;101111.69;5057046;27;45381;-61
2022/05/03 03:50:13;;;;;;;;;39.50;35.50;;;;;11.73;55.35;101111.69;5057272;27;45207;-58
2022/05/03 03:52:43;;;;;;;;;39.50;33.00;;;;;11.72;56.21;101110.84;5057102;28;45593;-54
2022/05/03 03:55:10;;;;;;;;;46.75;39.75;;;;;11.69;56.21;101104.78;5057424;27;46112;-55
2022/05/03 03:57:36;;;;;;;;;43.25;36.75;;;;;11.62;56.04;101109.59;5057387;27;45286;-53
2022/05/03 04:00:11;;;;;;;;;32.75;26.25;;;;;11.66;56.15;101113.81;5055567;28;45347;-59
2022/05/03 04:02:37;;;;;;;;;33.00;33.00;;;;;11.66;55.68;101111.13;5057383;28;45489;-60
2022/05/03 04:05:03;;;;;;;;;44.75;33.50;;;;;11.64;56.33;101113.03;5055494;27;45316;-57
2022/05/03 04:07:29;;;;;;;;;50.50;37.75;;;;;11.58;56.54;101112.47;5072403;27;45246;-61
2022/05/03 04:09:54;;;;;;;;;44.50;37.75;;;;;11.64;55.97;101118.34;5057055;28;45849;-57
2022/05/03 04:12:21;;;;;;;;;40.00;36.00;;;;;11.61;56.33;101105.19;5072972;27;45432;-62
2022/05/03 04:14:47;;;;;;;;;39.25;36.25;;;;;11.54;56.68;101125.09;5055997;27;46604;-56
2022/05/03 04:17:12;;;;;;;;;45.75;38.00;;;;;11.50;57.01;101119.06;5056671;28;45571;-58
2022/05/03 04:19:37;;;;;;;;;50.75;41.00;;;;;11.54;56.72;101119.75;5057007;27;45373;-58
2022/05/03 04:22:12;;;;;;;;;42.75;38.25;;;;;11.53;56.71;101123.38;5056806;28;45512;-60
2022/05/03 04:24:39;;;;;;;;;39.50;32.25;;;;;11.42;56.05;101115.06;5056644;27;46168;-60
2022/05/03 04:27:05;;;;;;;;;42.00;37.00;;;;;11.36;56.20;101108.28;5055684;28;45504;-57
2022/05/03 04:29:31;;;;;;;;;43.50;38.25;;;;;11.42;56.98;101117.72;5055314;28;45289;-57
2022/05/03 04:31:56;;;;;;;;;36.00;36.00;;;;;11.47;56.42;101123.72;5056838;28;45210;-56
2022/05/03 04:34:22;;;;;;;;;41.50;36.50;;;;;11.46;56.56;101129.97;5056392;28;45508;-61
2022/05/03 04:36:47;;;;;;;;;37.00;33.50;;;;;11.46;56.42;101124.66;5056648;28;45287;-58
2022/05/03 04:39:12;;;;;;;;;37.00;33.75;;;;;11.38;56.91;101126.81;5055598;28;45509;-58
2022/05/03 04:41:38;;;;;;;;;46.00;38.50;;;;;11.38;56.78;101126.81;5057230;28;45442;-59
2022/05/03 04:44:04;;;;;;;;;45.00;36.75;;;;;11.35;57.34;101124.31;5056192;28;45430;-59
2022/05/03 04:46:29;;;;;;;;;43.00;37.50;;;;;11.30;56.59;101135.19;5055352;28;45586;-59
2022/05/03 04:48:55;;;;;;;;;48.00;40.00;;;;;11.31;57.65;101125.41;5056412;28;45272;-62
2022/05/03 04:51:24;;;;;;;;;45.50;40.00;;;;;11.28;56.88;101125.56;5056637;28;45237;-56
2022/05/03 04:53:50;;;;;;;;;45.25;38.00;;;;;11.34;56.91;101119.94;5056569;28;45428;-61
2022/05/03 04:56:23;;;;;;;;;37.50;33.25;;;;;11.31;57.01;101126.25;5054370;28;45315;-62
2022/05/03 04:58:50;;;;;;;;;46.25;36.00;;;;;11.30;57.30;101127.19;5056523;28;45318;-60
2022/05/03 05:01:16;;;;;;;;;42.25;37.25;;;;;11.20;57.23;101112.66;5072178;27;45477;-59
2022/05/03 05:03:42;;;;;;;;;50.25;39.00;;;;;11.25;57.83;101125.72;5055922;28;45338;-52
2022/05/03 05:06:12;;;;;;;;;49.25;36.00;;;;;11.23;58.06;101133.78;5071904;27;45274;-65
2022/05/03 05:08:39;;;;;;;;;47.25;40.00;;;;;11.17;58.42;101134.94;5056418;28;45438;-59
2022/05/03 05:11:04;;;;;;;;;51.50;41.25;;;;;11.20;58.21;101134.81;5055809;27;45418;-63
2022/05/03 05:13:30;;;;;;;;;49.75;39.75;;;;;11.27;57.70;101140.69;5055487;28;45959;-63
2022/05/03 05:15:56;;;;;;;;;39.00;33.50;;;;;11.29;57.59;101135.28;5056163;28;45278;-60
2022/05/03 05:18:22;;;;;;;;;46.00;34.00;;;;;11.32;58.00;101143.09;5071630;28;45299;-59
2022/05/03 05:20:48;;;;;;;;;49.00;39.25;;;;;11.31;57.98;101141.38;5056252;28;45528;-54
2022/05/03 05:23:14;;;;;;;;;44.50;37.25;;;;;11.31;57.56;101144.91;5071231;28;45362;-54
2022/05/03 05:25:39;;;;;;;;;45.25;35.50;;;;;11.37;57.29;101144.59;5054876;28;45308;-61
2022/05/03 05:28:04;;;;;;;;;44.75;38.75;;;;;11.46;57.59;101143.28;5056255;28;45235;-55
2022/05/03 05:30:30;;;;;;;;;45.00;39.00;;;;;11.39;57.03;101144.53;5056234;28;45214;-59
2022/05/03 05:32:55;;;;;;;;;56.25;40.50;;;;;11.29;57.75;101127.28;5054891;28;46238;-54
2022/05/03 05:35:20;;;;;;;;;53.75;39.50;;;;;11.36;57.60;101155.34;5055756;27;45460;-59
2022/05/03 05:37:46;;;;;;;;;40.75;36.75;;;;;11.38;57.70;101153.47;5055710;27;45317;-61
2022/05/03 05:40:11;;;;;;;;;54.50;40.00;;;;;11.31;58.05;101149.38;5054781;28;45479;-58
2022/05/03 05:42:37;;;;;;;;;42.25;35.00;;;;;11.44;57.41;101154.00;5055522;28;45452;-57
2022/05/03 05:45:02;;;;;;;;;49.00;40.75;;;;;11.52;57.56;101148.28;5054290;28;45423;-64
2022/05/03 05:47:28;;;;;;;;;47.75;40.00;;;;;11.66;56.81;101159.09;5071184;27;45336;-58
2022/05/03 05:49:53;;;;;;;;;46.25;38.00;;;;;11.69;57.25;101156.28;5055797;28;45367;-56
2022/05/03 05:55:04;;;;;;;;;48.00;39.50;;;;;11.64;56.91;101160.97;5054510;28;45326;-62
2022/05/03 05:57:29;;;;;;;;;49.00;38.25;;;;;11.60;57.13;101159.44;5071395;27;45367;-61
2022/05/03 05:59:54;;;;;;;;;47.50;37.75;;;;;11.58;57.10;101153.28;5055711;27;45569;-56
2022/05/03 06:02:20;;;;;;;;;40.75;35.50;;;;;11.70;56.85;101154.47;5055239;28;46338;-61
2022/05/03 06:04:45;;;;;;;;;41.75;38.50;;;;;11.71;56.88;101166.84;5055550;28;45436;-54
2022/05/03 06:07:11;;;;;;;;;39.75;37.50;;;;;11.72;57.12;101158.81;5055601;27;45374;-59
2022/05/03 06:09:37;;;;;;;;;50.50;39.00;;;;;11.57;57.21;101151.56;5055710;28;45587;-60
2022/05/03 06:12:03;;;;;;;;;49.75;41.25;;;;;11.57;57.30;101158.69;5053596;27;47428;-58
2022/05/03 06:14:28;;;;;;;;;41.25;36.50;;;;;11.77;56.93;101177.19;5055221;27;45187;-56
2022/05/03 06:16:56;;;;;;;;;48.25;39.00;;;;;11.92;56.87;101181.75;5058294;28;45338;-59
2022/05/03 06:19:21;;;;;;;;;48.50;41.00;;;;;11.87;56.47;101167.81;5057835;28;45630;-58
2022/05/03 06:21:47;;;;;;;;;42.75;33.00;;;;;11.98;56.43;101177.91;5058401;28;46299;-59
2022/05/03 06:24:15;;;;;;;;;49.00;38.75;;;;;11.93;56.24;101166.63;5058576;28;45350;-59
2022/05/03 06:26:41;;;;;;;;;42.50;35.25;;;;;12.00;56.39;101168.03;5058489;27;45427;-61
2022/05/03 06:29:08;;;;;;;;;51.25;39.50;;;;;11.89;56.52;101176.59;5058535;28;45601;-56
2022/05/03 06:31:39;;;;;;;;;53.25;40.75;;;;;11.92;56.43;101180.91;5058044;28;46089;-58
2022/05/03 06:34:05;;;;;;;;;43.25;36.75;;;;;11.89;56.75;101191.72;5058049;28;45389;-63
2022/05/03 06:36:30;;;;;;;;;50.50;40.00;;;;;11.96;56.20;101177.97;5057954;28;45479;-61
2022/05/03 06:38:56;;;;;;;;;45.75;36.50;;;;;12.03;55.94;101187.41;5058488;28;45532;-61
2022/05/03 06:41:21;;;;;;;;;45.50;39.50;;;;;12.07;55.96;101196.09;5056735;28;47791;-61
2022/05/03 06:43:48;;;;;;;;;50.75;39.50;;;;;12.12;55.83;101194.06;5058676;28;45783;-62
2022/05/03 06:46:13;;;;;;;;;42.75;39.00;;;;;12.21;55.47;101187.34;5057376;28;45283;-57
2022/05/03 06:48:39;;;;;;;;;41.00;39.00;;;;;12.18;55.75;101176.84;5058333;27;45663;-59
2022/05/03 06:51:07;;;;;;;;;42.50;39.00;;;;;12.31;55.29;101188.59;5057800;27;45461;-59
2022/05/03 06:53:33;;;;;;;;;37.50;35.00;;;;;12.21;55.63;101185.56;5073555;27;45517;-64
2022/05/03 06:55:58;;;;;;;;;49.50;38.00;;;;;12.30;55.43;101190.41;5058046;28;45367;-61
2022/05/03 06:58:25;;;;;;;;;41.25;39.00;;;;;12.43;55.48;101197.75;5058372;28;45566;-61
2022/05/03 07:00:51;;;;;;;;;35.00;32.75;;;;;12.47;55.16;101199.28;5058092;28;45381;-62
2022/05/03 07:03:19;;;;;;;;;54.00;40.50;;;;;12.56;55.12;101193.47;5057878;28;45434;-60
2022/05/03 07:05:45;;;;;;;;;47.75;41.75;;;;;12.62;54.74;101198.44;5056874;28;45469;-62
2022/05/03 07:08:10;;;;;;;;;55.00;37.50;;;;;12.54;54.93;101190.03;5056788;28;45571;-61
2022/05/03 07:10:40;;;;;;;;;51.75;41.25;;;;;12.54;55.15;101200.69;5057748;28;46153;-59
2022/05/03 07:13:12;;;;;;;;;39.00;36.75;;;;;12.57;55.12;101201.38;5056660;28;45326;-54
2022/05/03 07:15:38;;;;;;;;;38.50;36.00;;;;;12.62;54.78;101199.31;5073452;28;45477;-58
2022/05/03 07:23:42;;;;;;;;;46.75;37.75;;;;;12.50;55.04;101199.13;5007158;28;45526;-63
2022/05/03 07:26:08;;;;;;;;;53.50;40.50;;;;;12.51;54.83;101196.41;5056411;27;45383;-59
2022/05/03 07:28:33;;;;;;;;;51.75;40.75;;;;;12.56;54.69;101196.13;5057157;27;45588;-60
2022/05/03 07:30:58;;;;;;;;;44.75;38.25;;;;;12.62;54.77;101198.44;5057342;27;46008;-56
2022/05/03 07:33:24;;;;;;;;;49.75;36.25;;;;;12.66;54.67;101197.34;5057362;28;45461;-53
2022/05/03 07:35:49;;;;;;;;;52.00;38.00;;;;;12.74;54.77;101189.78;5056631;28;45462;-57
2022/05/03 07:38:14;;;;;;;;;42.25;39.00;;;;;12.81;54.10;101196.50;5057692;27;45641;-59
2022/05/03 07:40:40;;;;;;;;;46.75;39.00;;;;;12.80;54.33;101202.78;5057390;28;45920;-55
2022/05/03 07:43:05;;;;;;;;;50.00;39.50;;;;;12.84;54.48;101204.34;5057356;28;45338;-58
2022/05/03 07:45:31;;;;;;;;;43.75;38.25;;;;;12.90;53.85;101200.47;5057335;28;45449;-56
2022/05/03 07:47:56;;;;;;;;;45.50;37.00;;;;;12.94;54.03;101210.88;5056233;27;45370;-55
2022/05/03 07:50:22;;;;;;;;;47.25;38.50;;;;;12.97;54.08;101205.38;5057032;27;46192;-58
2022/05/03 07:52:47;;;;;;;;;41.50;38.00;;;;;13.12;53.77;101213.47;5057137;28;45266;-64
2022/05/03 07:55:12;;;;;;;;;37.50;35.75;;;;;13.26;53.51;101205.56;5055584;27;45728;-63
2022/05/03 07:57:38;;;;;;;;;38.50;34.25;;;;;13.46;53.48;101212.44;5055758;27;45279;-59
2022/05/03 08:00:05;;;;;;;;;34.00;32.50;;;;;13.68;52.52;101196.00;5057097;28;46132;-54
2022/05/03 08:02:31;;;;;;;;;45.25;38.50;;;;;13.98;51.92;101220.03;5057215;27;45433;-59
2022/05/03 08:04:56;;;;;;;;;46.00;38.75;;;;;14.06;51.61;101209.72;5056006;28;45468;-61
2022/05/03 08:07:22;;;;;;;;;45.25;36.75;;;;;14.15;51.23;101193.97;5057596;28;45568;-58
2022/05/03 08:09:48;;;;;;;;;38.00;35.00;;;;;14.19;50.79;101191.97;5057288;28;46668;-58
2022/05/03 08:12:14;;;;;;;;;47.25;39.00;;;;;14.44;50.40;101207.41;5056719;28;45462;-60
2022/05/03 08:14:40;;;;;;;;;47.00;38.50;;;;;14.49;50.66;101199.97;5072463;27;45374;-58
2022/05/03 08:17:06;;;;;;;;;49.25;40.50;;;;;14.60;50.53;101178.72;5056776;28;45608;-62
2022/05/03 08:19:32;;;;;;;;;43.00;35.00;;;;;14.76;49.68;101197.34;5056491;27;46223;-58
2022/05/03 08:21:57;;;;;;;;;36.00;33.00;;;;;14.61;49.39;101188.47;5056868;27;45271;-60
2022/05/03 08:24:24;;;;;;;;;34.75;32.75;;;;;14.88;49.91;101209.09;5056479;28;45172;-63
2022/05/03 08:26:50;;;;;;;;;40.00;34.25;;;;;15.07;49.16;101208.75;5057021;28;45567;-64
2022/05/03 08:29:16;;;;;;;;;39.75;34.50;;;;;15.20;49.29;101207.84;5056463;28;46174;-61
2022/05/03 08:31:42;;;;;;;;;36.25;34.50;;;;;15.41;49.34;101210.09;5056552;28;45309;-59
2022/05/03 08:34:08;;;;;;;;;31.25;28.25;;;;;15.70;47.62;101200.97;5048813;28;45461;-59
2022/05/03 08:36:34;;;;;;;;;30.25;26.50;;;;;15.99;46.82;101192.75;5036589;27;45528;-64
2022/05/03 08:44:35;;;;;;;;;38.00;32.25;;;;;17.09;44.71;101183.94;5056120;28;45485;-59
2022/05/03 08:47:02;;;;;;;;;33.33;31.33;;;;;17.59;43.25;101203.50;5056522;28;45471;-61
2022/05/03 08:49:52;;;;;;;;;33.00;31.67;;;;;17.96;42.92;101195.31;5071628;28;45502;-57
2022/05/03 08:52:20;;;;;;;;;33.00;29.33;;;;;18.34;42.04;101194.16;5056656;28;45339;-61
2022/05/03 08:54:46;;;;;;;;;32.33;31.00;;;;;18.65;41.50;101198.88;5056920;28;45266;-55
2022/05/03 08:57:12;;;;;;;;;25.67;25.67;;;;;18.88;39.66;101188.03;5057000;28;45261;-60
2022/05/03 08:59:38;;;;;;;;;34.33;24.33;;;;;18.97;39.89;101184.59;5056627;28;45395;-63
2022/05/03 09:02:04;;;;;;;;;32.00;27.67;;;;;19.28;39.13;101200.00;5056061;28;45376;-60
2022/05/03 09:04:30;;;;;;;;;34.67;32.33;;;;;19.22;38.74;101184.31;5056032;28;45740;-58
2022/05/03 09:06:56;;;;;;;;;33.33;30.33;;;;;19.42;38.25;101194.31;5056494;27;45392;-60
2022/05/03 09:09:24;;;;;;;;;27.33;25.67;;;;;19.66;38.67;101169.81;5056439;28;45267;-61
2022/05/03 09:11:53;;;;;;;;;32.00;24.00;;;;;19.74;37.23;101185.34;5056414;28;45225;-60
2022/05/03 09:14:39;;;;;;;;;27.67;25.33;;;;;19.28;38.04;101189.22;5054509;28;45483;-64
2022/05/03 09:17:08;;;;;;;;;30.00;30.00;;;;;19.56;38.76;101190.47;5056112;28;45453;-57
2022/05/03 09:19:34;;;;;;;;;30.00;27.00;;;;;19.83;37.54;101186.41;5055762;28;45349;-58
2022/05/03 09:24:54;;;;;;;;;27.00;25.00;;;;;20.39;37.47;101189.59;5054728;28;45308;-59
2022/05/03 09:27:21;;;;;;;;;30.33;30.00;;;;;20.40;36.49;101185.91;5055765;28;45246;-55
2022/05/03 09:30:07;;;;;;;;;27.67;26.00;;;;;20.57;36.44;101188.03;5055682;27;45200;-62
2022/05/03 09:32:41;;;;;;;;;28.67;28.33;;;;;20.53;36.84;101175.75;5054309;28;45511;-54
2022/05/03 09:35:31;;;;;;;;;32.33;26.33;;;;;20.82;36.19;101185.81;5054355;28;45387;-55
2022/05/03 09:37:57;;;;;;;;;27.67;27.67;;;;;21.19;36.20;101161.69;5056113;28;45427;-52
2022/05/03 09:40:22;;;;;;;;;28.33;21.00;;;;;21.54;35.32;101182.84;5056099;28;46460;-61
2022/05/03 09:42:53;;;;;;;;;21.67;20.00;;;;;21.53;33.94;101175.72;5055756;27;45219;-58
2022/05/03 09:45:23;;;;;;;;;22.33;21.33;;;;;21.32;34.26;101183.94;5056057;28;45311;-62
2022/05/03 09:47:51;;;;;;;;;27.67;23.33;;;;;21.13;34.31;101173.94;5055784;28;45533;-63
2022/05/03 09:50:32;;;;;;;;;25.00;23.00;;;;;21.27;34.07;101179.97;5056016;28;45381;-60
2022/05/03 09:53:07;;;;;;;;;29.33;24.67;;;;;21.34;34.00;101181.09;5058930;28;45373;-58
2022/05/03 09:55:37;;;;;;;;;19.67;19.67;;;;;21.36;35.12;101179.13;5059040;28;45184;-57
2022/05/03 09:58:05;;;;;;;;;27.00;24.67;;;;;21.47;34.40;101154.63;5059154;28;45633;-59
2022/05/03 10:00:33;;;;;;;;;26.67;24.67;;;;;21.64;33.46;101167.44;5074054;28;45516;-57
2022/05/03 10:03:00;;;;;;;;;28.00;25.00;;;;;21.41;34.30;101172.28;5074347;28;45364;-58
2022/05/03 10:05:25;;;;;;;;;25.00;22.00;;;;;21.36;34.20;101150.22;5059167;28;45685;-59
2022/05/03 10:07:52;;;;;;;;;25.67;23.00;;;;;21.56;34.68;101170.00;5059057;28;45616;-61
2022/05/03 10:10:18;;;;;;;;;27.33;25.33;;;;;21.74;33.60;101113.28;5058975;28;45369;-57
2022/05/03 10:12:46;;;;;;;;;23.33;20.67;;;;;21.93;33.24;101145.75;5074511;27;45429;-57
2022/05/03 10:15:13;;;;;;;;;25.00;23.00;;;;;22.13;33.35;101146.56;5057153;28;45394;-62
2022/05/03 10:20:46;;;;;;;;;24.00;21.33;;;;;21.93;32.25;101145.75;5058242;28;45255;-62
2022/05/03 10:23:19;;;;;;;;;26.00;23.67;;;;;21.88;32.27;101158.03;5058273;28;45377;-60
2022/05/03 10:25:45;;;;;;;;;20.33;20.33;;;;;21.62;33.27;101157.78;5058427;27;45361;-58
2022/05/03 10:28:10;;;;;;;;;23.00;21.67;;;;;21.45;33.38;101146.66;5074571;28;45608;-60
2022/05/03 10:30:38;;;;;;;;;24.67;22.00;;;;;21.41;33.19;101155.19;5058230;28;45313;-55
2022/05/03 10:33:19;;;;;;;;;24.00;18.00;;;;;21.24;33.38;101158.59;5058497;28;45449;-55
2022/05/03 10:35:48;;;;;;;;;21.67;19.67;;;;;21.18;33.32;101155.44;5074072;28;45444;-59
2022/05/03 10:38:14;;;;;;;;;22.00;20.67;;;;;21.17;33.77;101145.59;5058122;28;45540;-57
2022/05/03 10:40:42;;;;;;;;;28.33;23.33;;;;;21.00;33.73;101149.00;5073751;28;47421;-63
2022/05/03 10:43:10;;;;;;;;;24.33;22.00;;;;;20.81;33.75;101154.34;5058281;28;45217;-57
2022/05/03 10:45:58;;;;;;;;;24.00;20.00;;;;;20.57;34.04;101155.59;5057471;28;45471;-59
2022/05/03 10:48:33;;;;;;;;;30.00;22.33;;;;;20.40;35.14;101153.47;5058152;28;45644;-60
2022/05/03 10:51:03;;;;;;;;;13.00;11.33;;;;;20.51;34.43;101145.31;5057049;28;47200;-63
2022/05/03 10:53:34;;;;;;;;;24.00;18.00;;;;;20.53;34.83;101137.91;5057872;28;45161;-63
2022/05/03 10:56:09;;;;;;;;;18.33;18.33;;;;;20.64;34.79;101149.63;5057242;28;45413;-58
2022/05/03 10:58:40;;;;;;;;;21.67;20.67;;;;;20.75;34.71;101147.66;5058067;28;45580;-55
2022/05/03 11:01:21;;;;;;;;;21.00;20.00;;;;;20.76;34.43;101143.13;5072148;27;45435;-56
2022/05/03 11:03:47;;;;;;;;;20.00;20.00;;;;;20.75;34.58;101152.22;5058249;27;45322;-57
2022/05/03 11:06:25;;;;;;;;;20.33;19.67;;;;;20.77;34.42;101142.13;5058218;27;45385;-59
2022/05/03 11:11:40;;;;;;;;;21.00;18.00;;;;;20.57;35.11;101133.97;5057750;28;45405;-61
2022/05/03 11:14:25;;;;;;;;;25.67;19.67;;;;;20.45;35.36;101140.47;5056769;27;45417;-57
2022/05/03 11:17:04;;;;;;;;;23.00;20.67;;;;;20.44;35.00;101138.72;5056813;28;45374;-56
2022/05/03 11:19:31;;;;;;;;;13.67;13.67;;;;;20.12;35.11;101129.91;5058445;28;45194;-62
2022/05/03 11:21:58;;;;;;;;;21.00;19.67;;;;;20.23;35.42;101129.81;5057753;27;45409;-60
2022/05/03 11:24:24;;;;;;;;;21.33;15.33;;;;;20.52;34.92;101130.81;5065797;27;45406;-63
2022/05/03 11:26:55;;;;;;;;;19.00;16.67;;;;;20.64;34.96;101128.00;5057703;27;45386;-62
2022/05/03 11:29:26;;;;;;;;;17.33;17.33;;;;;20.87;34.93;101126.78;5073729;27;45374;-65
2022/05/03 11:31:52;;;;;;;;;14.33;14.33;;;;;21.02;34.15;101119.97;5073335;28;47468;-61
2022/05/03 11:34:18;;;;;;;;;22.00;18.00;;;;;21.04;34.03;101120.69;5057112;27;45279;-61
2022/05/03 11:36:50;;;;;;;;;15.67;11.00;;;;;20.96;33.79;101111.56;5053401;28;45303;-63
2022/05/03 11:39:16;;;;;;;;;15.67;15.33;;;;;21.09;33.39;101113.00;5057255;28;45424;-62
2022/05/03 11:41:42;;;;;;;;;18.67;15.00;;;;;21.25;33.47;101112.47;5072873;27;46100;-63
2022/05/03 11:44:09;;;;;;;;;17.33;11.33;;;;;21.03;33.89;101107.31;5057220;28;45677;-62
2022/05/03 11:46:34;;;;;;;;;13.67;12.67;;;;;21.03;33.76;101108.16;5055874;28;45261;-62
2022/05/03 11:49:05;;;;;;;;;16.33;14.00;;;;;20.85;33.64;101120.66;5057416;28;45621;-62